Time;durP1;ratioP1;P1;durP2;ratioP2;P2;SDS_P1;SDS_P2;PMS_P1;PMS_P2;Temp;Humidity;BMP_temperature;BMP_pressure;BME280_temperature;BME280_humidity;BME280_pressure;Samples;Min_cycle;Max_cycle;Signal;HPM_P1;HPM_P2
2024/01/24 00:00:54;;;;;;;7.88;1.90;;;;;;;;;;5037003;28;20135;-66
2024/01/24 00:03:20;;;;;;;6.23;1.47;;;;;;;;;;5043641;28;20856;-65
2024/01/24 00:05:45;;;;;;;3.43;1.27;;;;;;;;;;5041256;28;21120;-66
2024/01/24 00:08:10;;;;;;;5.03;1.30;;;;;;;;;;5042144;28;20670;-65
2024/01/24 00:10:36;;;;;;;4.28;1.40;;;;;;;;;;5042798;28;20767;-65
2024/01/24 00:13:01;;;;;;;5.75;1.30;;;;;;;;;;5044557;28;20055;-65
2024/01/24 00:15:26;;;;;;;3.40;1.20;;;;;;;;;;5043623;28;20086;-66
2024/01/24 00:17:52;;;;;;;6.20;1.27;;;;;;;;;;5044938;28;20270;-65
2024/01/24 00:20:17;;;;;;;3.70;1.38;;;;;;;;;;5045942;28;20809;-65
2024/01/24 00:22:42;;;;;;;4.22;1.65;;;;;;;;;;5046436;28;20257;-65
2024/01/24 00:25:08;;;;;;;3.07;1.07;;;;;;;;;;5046648;28;20885;-65
2024/01/24 00:27:33;;;;;;;3.70;1.13;;;;;;;;;;5046798;28;21266;-65
2024/01/24 00:29:58;;;;;;;4.07;1.45;;;;;;;;;;5046749;28;20145;-66
2024/01/24 00:32:23;;;;;;;4.60;1.43;;;;;;;;;;5045438;28;20075;-66
2024/01/24 00:34:48;;;;;;;6.67;1.03;;;;;;;;;;5045150;28;20285;-65
2024/01/24 00:37:14;;;;;;;3.80;1.37;;;;;;;;;;5044783;28;20277;-65
2024/01/24 00:39:39;;;;;;;3.75;1.48;;;;;;;;;;5046595;28;20281;-65
2024/01/24 00:42:05;;;;;;;3.93;1.20;;;;;;;;;;5048076;28;21034;-65
2024/01/24 00:44:30;;;;;;;2.67;1.15;;;;;;;;;;5046232;28;21846;-65
2024/01/24 00:46:55;;;;;;;3.30;1.20;;;;;;;;;;5045976;28;20940;-65
2024/01/24 00:49:22;;;;;;;3.57;0.93;;;;;;;;;;5048656;28;20028;-65
2024/01/24 00:51:47;;;;;;;1.30;0.60;;;;;;;;;;5047702;28;20281;-64
2024/01/24 00:54:12;;;;;;;2.05;0.82;;;;;;;;;;5044952;28;20874;-65
2024/01/24 00:56:40;;;;;;;3.70;1.00;;;;;;;;;;5045482;28;20024;-65
2024/01/24 00:59:05;;;;;;;4.13;1.30;;;;;;;;;;5044834;28;20339;-64
2024/01/24 01:01:30;;;;;;;4.93;1.00;;;;;;;;;;5037465;28;20025;-65
2024/01/24 01:03:55;;;;;;;5.85;0.98;;;;;;;;;;5042390;28;20286;-65
2024/01/24 01:06:22;;;;;;;3.07;1.07;;;;;;;;;;5044331;28;20881;-64
2024/01/24 01:08:47;;;;;;;4.15;0.75;;;;;;;;;;5045036;28;20273;-64
2024/01/24 01:11:12;;;;;;;2.57;1.07;;;;;;;;;;5046419;28;20027;-65
2024/01/24 01:13:38;;;;;;;2.38;0.80;;;;;;;;;;5043477;28;20275;-65
2024/01/24 01:16:03;;;;;;;2.17;0.80;;;;;;;;;;5044767;28;20038;-65
2024/01/24 01:18:28;;;;;;;3.03;0.95;;;;;;;;;;5045648;28;20875;-65
2024/01/24 01:20:53;;;;;;;2.65;0.82;;;;;;;;;;5043796;28;20127;-65
2024/01/24 01:23:19;;;;;;;2.92;0.85;;;;;;;;;;5040994;28;20024;-66
2024/01/24 01:25:44;;;;;;;1.95;0.77;;;;;;;;;;5045245;28;20164;-66
2024/01/24 01:28:10;;;;;;;3.07;1.00;;;;;;;;;;5045258;28;20050;-66
2024/01/24 01:30:35;;;;;;;2.50;0.70;;;;;;;;;;5044958;28;20274;-65
2024/01/24 01:33:00;;;;;;;1.80;0.73;;;;;;;;;;5043338;28;20125;-65
2024/01/24 01:35:26;;;;;;;2.20;0.80;;;;;;;;;;5045269;28;20266;-65
2024/01/24 01:37:51;;;;;;;2.28;0.80;;;;;;;;;;5043111;28;20021;-66
2024/01/24 01:40:17;;;;;;;2.90;1.10;;;;;;;;;;5046716;28;20884;-65
2024/01/24 01:42:44;;;;;;;2.57;0.60;;;;;;;;;;5034096;28;20285;-65
2024/01/24 01:45:09;;;;;;;2.97;0.70;;;;;;;;;;5025503;28;21123;-68
2024/01/24 01:47:35;;;;;;;2.22;0.77;;;;;;;;;;5044626;28;20028;-67
2024/01/24 01:50:00;;;;;;;4.07;1.35;;;;;;;;;;5030952;28;20920;-67
2024/01/24 01:52:25;;;;;;;2.25;0.82;;;;;;;;;;5039192;28;20114;-67
2024/01/24 01:54:51;;;;;;;1.50;0.70;;;;;;;;;;5044671;28;20035;-67
2024/01/24 01:57:16;;;;;;;1.63;0.65;;;;;;;;;;5038109;28;20143;-67
2024/01/24 01:59:41;;;;;;;5.03;0.77;;;;;;;;;;5043997;28;20035;-67
2024/01/24 02:02:07;;;;;;;1.55;0.57;;;;;;;;;;5041801;28;20935;-67
2024/01/24 02:04:32;;;;;;;1.90;0.68;;;;;;;;;;5044876;28;20047;-68
2024/01/24 02:06:58;;;;;;;1.40;0.52;;;;;;;;;;5042955;28;20035;-67
2024/01/24 02:09:23;;;;;;;1.08;0.35;;;;;;;;;;5044401;28;20838;-66
2024/01/24 02:11:49;;;;;;;1.60;0.68;;;;;;;;;;5044074;28;20032;-67
2024/01/24 02:14:14;;;;;;;1.75;0.60;;;;;;;;;;5036417;28;20032;-66
2024/01/24 02:16:40;;;;;;;3.47;0.52;;;;;;;;;;5043999;28;21077;-67
2024/01/24 02:19:06;;;;;;;1.23;0.53;;;;;;;;;;5037353;28;20303;-67
2024/01/24 02:21:31;;;;;;;2.03;0.70;;;;;;;;;;5024927;28;20456;-67
2024/01/24 02:23:58;;;;;;;1.80;0.47;;;;;;;;;;5043229;28;20058;-67
2024/01/24 02:26:23;;;;;;;1.25;0.45;;;;;;;;;;5043750;28;20832;-67
2024/01/24 02:28:48;;;;;;;2.77;0.80;;;;;;;;;;5042845;28;20039;-67
2024/01/24 02:31:14;;;;;;;3.37;0.70;;;;;;;;;;5044044;28;20285;-67
2024/01/24 02:33:39;;;;;;;1.00;0.40;;;;;;;;;;5041860;28;20314;-67
2024/01/24 02:36:04;;;;;;;1.73;0.60;;;;;;;;;;5044272;28;20028;-67
2024/01/24 02:38:30;;;;;;;1.83;0.60;;;;;;;;;;5043193;28;20328;-67
2024/01/24 02:40:55;;;;;;;1.33;0.50;;;;;;;;;;5041612;28;20059;-67
2024/01/24 02:43:20;;;;;;;2.13;0.77;;;;;;;;;;5042637;28;20021;-67
2024/01/24 02:45:45;;;;;;;1.67;0.60;;;;;;;;;;5044082;28;20035;-68
2024/01/24 02:48:10;;;;;;;1.37;0.60;;;;;;;;;;5044514;28;20024;-66
2024/01/24 02:50:36;;;;;;;1.52;0.52;;;;;;;;;;5042521;28;20288;-66
2024/01/24 02:53:01;;;;;;;2.30;0.70;;;;;;;;;;5043386;28;20063;-67
2024/01/24 02:55:26;;;;;;;2.50;0.87;;;;;;;;;;5042982;28;20032;-67
2024/01/24 02:57:51;;;;;;;1.40;0.63;;;;;;;;;;5043516;28;20294;-67
2024/01/24 03:00:17;;;;;;;1.93;0.73;;;;;;;;;;5044051;28;20180;-67
2024/01/24 03:02:42;;;;;;;1.70;0.77;;;;;;;;;;5042602;28;20278;-68
2024/01/24 03:05:08;;;;;;;0.97;0.50;;;;;;;;;;5043570;28;20840;-68
2024/01/24 03:07:34;;;;;;;1.40;0.60;;;;;;;;;;5043191;28;20313;-68
2024/01/24 03:10:00;;;;;;;2.55;1.05;;;;;;;;;;5044159;28;20889;-68
2024/01/24 03:12:25;;;;;;;2.43;0.60;;;;;;;;;;5042687;28;20908;-68
2024/01/24 03:14:50;;;;;;;2.37;0.63;;;;;;;;;;5042540;28;21275;-67
2024/01/24 03:17:15;;;;;;;1.87;0.70;;;;;;;;;;5043412;28;21260;-68
2024/01/24 03:19:40;;;;;;;1.90;0.80;;;;;;;;;;5043907;28;21170;-66
2024/01/24 03:22:06;;;;;;;1.83;0.90;;;;;;;;;;5042877;28;21204;-65
2024/01/24 03:24:31;;;;;;;2.27;0.90;;;;;;;;;;5040353;28;21121;-66
2024/01/24 03:26:56;;;;;;;1.73;0.60;;;;;;;;;;5044354;28;21214;-66
2024/01/24 03:29:21;;;;;;;1.83;0.90;;;;;;;;;;5044700;28;21059;-66
2024/01/24 03:31:47;;;;;;;2.10;0.80;;;;;;;;;;5043257;28;21195;-66
2024/01/24 03:34:12;;;;;;;2.00;0.52;;;;;;;;;;5043173;28;20026;-67
2024/01/24 03:36:37;;;;;;;2.15;0.77;;;;;;;;;;5042465;28;20117;-67
2024/01/24 03:39:03;;;;;;;1.55;0.70;;;;;;;;;;5041497;28;20044;-67
2024/01/24 03:41:29;;;;;;;1.30;0.60;;;;;;;;;;5044160;28;20028;-67
2024/01/24 03:43:54;;;;;;;1.40;0.40;;;;;;;;;;5039324;28;20094;-67
2024/01/24 03:46:20;;;;;;;1.00;0.47;;;;;;;;;;5041029;28;20116;-66
2024/01/24 03:48:45;;;;;;;1.23;0.40;;;;;;;;;;5044765;28;20278;-66
2024/01/24 03:51:11;;;;;;;1.88;0.60;;;;;;;;;;5045791;28;20023;-67
2024/01/24 03:53:36;;;;;;;1.95;0.50;;;;;;;;;;5041049;28;20032;-66
2024/01/24 03:56:01;;;;;;;0.80;0.27;;;;;;;;;;5042199;28;20055;-66
2024/01/24 03:58:27;;;;;;;1.40;0.20;;;;;;;;;;5045644;28;20381;-65
2024/01/24 04:00:54;;;;;;;1.23;0.52;;;;;;;;;;5042495;28;20023;-66
2024/01/24 04:03:20;;;;;;;0.70;0.30;;;;;;;;;;5044961;28;20051;-66
2024/01/24 04:05:45;;;;;;;1.03;0.40;;;;;;;;;;5043984;28;20020;-66
2024/01/24 04:08:10;;;;;;;1.07;0.43;;;;;;;;;;5047568;28;20273;-66
2024/01/24 04:10:36;;;;;;;2.87;0.20;;;;;;;;;;5045995;28;20274;-66
2024/01/24 04:13:01;;;;;;;1.80;0.50;;;;;;;;;;5044946;28;20308;-66
2024/01/24 04:15:27;;;;;;;1.13;0.32;;;;;;;;;;5045838;28;20078;-66
2024/01/24 04:17:52;;;;;;;1.25;0.43;;;;;;;;;;5045557;28;20060;-67
2024/01/24 04:20:17;;;;;;;1.13;0.40;;;;;;;;;;5048725;28;20923;-65
2024/01/24 04:22:43;;;;;;;1.20;0.40;;;;;;;;;;5047564;28;20023;-65
2024/01/24 04:25:08;;;;;;;2.72;0.40;;;;;;;;;;5046710;28;20339;-65
2024/01/24 04:27:33;;;;;;;1.00;0.30;;;;;;;;;;5047172;28;20028;-65
2024/01/24 04:29:58;;;;;;;1.05;0.45;;;;;;;;;;5046915;28;20873;-64
2024/01/24 04:32:24;;;;;;;1.27;0.30;;;;;;;;;;5047180;28;20036;-65
2024/01/24 04:34:49;;;;;;;0.93;0.32;;;;;;;;;;5045512;28;20282;-64
2024/01/24 04:37:14;;;;;;;1.07;0.33;;;;;;;;;;5045791;28;20950;-65
2024/01/24 04:39:40;;;;;;;2.03;0.43;;;;;;;;;;5044974;28;21179;-64
2024/01/24 04:42:05;;;;;;;1.33;0.32;;;;;;;;;;5044073;28;21189;-64
2024/01/24 04:44:30;;;;;;;1.95;0.35;;;;;;;;;;5044358;28;20583;-63
2024/01/24 04:46:56;;;;;;;0.87;0.30;;;;;;;;;;5045760;28;20869;-64
2024/01/24 04:49:21;;;;;;;3.58;0.45;;;;;;;;;;5044784;28;20348;-64
2024/01/24 04:51:48;;;;;;;1.27;0.20;;;;;;;;;;5045199;28;20028;-64
2024/01/24 04:54:13;;;;;;;1.40;0.43;;;;;;;;;;5044847;28;20889;-64
2024/01/24 04:56:43;;;;;;;1.58;0.30;;;;;;;;;;5045157;28;20031;-63
2024/01/24 04:59:08;;;;;;;2.05;0.40;;;;;;;;;;5042034;28;20020;-64
2024/01/24 05:01:33;;;;;;;2.47;0.40;;;;;;;;;;5044596;28;20999;-64
2024/01/24 05:03:59;;;;;;;2.80;0.50;;;;;;;;;;5044932;28;21190;-64
2024/01/24 05:06:24;;;;;;;1.73;0.43;;;;;;;;;;5033592;28;20895;-64
2024/01/24 05:08:51;;;;;;;1.97;0.50;;;;;;;;;;5044419;28;20029;-63
2024/01/24 05:11:16;;;;;;;4.88;1.25;;;;;;;;;;5044931;28;20335;-65
2024/01/24 05:13:41;;;;;;;6.35;0.88;;;;;;;;;;5042068;28;20036;-65
2024/01/24 05:16:06;;;;;;;6.13;1.25;;;;;;;;;;5044526;28;20064;-65
2024/01/24 05:18:32;;;;;;;7.00;1.60;;;;;;;;;;5045907;28;20024;-64
2024/01/24 05:20:57;;;;;;;7.87;1.10;;;;;;;;;;5045962;28;20086;-65
2024/01/24 05:23:22;;;;;;;3.60;1.23;;;;;;;;;;5043243;28;20266;-64
2024/01/24 05:25:47;;;;;;;4.70;0.73;;;;;;;;;;5044557;28;20282;-65
2024/01/24 05:28:13;;;;;;;7.63;1.55;;;;;;;;;;5043709;28;20278;-64
2024/01/24 05:30:39;;;;;;;10.98;1.40;;;;;;;;;;5032985;28;20052;-64
2024/01/24 05:33:04;;;;;;;4.47;1.13;;;;;;;;;;5045262;28;20036;-65
2024/01/24 05:35:29;;;;;;;10.70;2.72;;;;;;;;;;5039402;28;20325;-64
2024/01/24 05:37:55;;;;;;;8.57;2.20;;;;;;;;;;5043774;28;20020;-64
2024/01/24 05:40:20;;;;;;;8.80;2.13;;;;;;;;;;5043601;28;20822;-64
2024/01/24 05:42:45;;;;;;;9.50;2.08;;;;;;;;;;5045311;28;21284;-64
2024/01/24 05:45:11;;;;;;;9.95;2.40;;;;;;;;;;5044068;28;20031;-64
2024/01/24 05:47:37;;;;;;;12.98;2.97;;;;;;;;;;5044558;28;20024;-64
2024/01/24 05:50:02;;;;;;;8.82;2.35;;;;;;;;;;5044932;28;20028;-64
2024/01/24 05:52:27;;;;;;;11.13;2.90;;;;;;;;;;5045030;28;20028;-64
2024/01/24 05:54:52;;;;;;;14.20;2.70;;;;;;;;;;5044310;28;20032;-64
2024/01/24 05:57:18;;;;;;;7.95;2.10;;;;;;;;;;5045827;28;20269;-63
2024/01/24 05:59:43;;;;;;;10.55;2.72;;;;;;;;;;5043889;28;20138;-64
2024/01/24 06:02:09;;;;;;;9.03;2.47;;;;;;;;;;5045305;28;20034;-64
2024/01/24 06:04:34;;;;;;;7.38;2.65;;;;;;;;;;5031378;28;20273;-64
2024/01/24 06:07:00;;;;;;;13.50;3.22;;;;;;;;;;5044356;28;20016;-63
2024/01/24 06:09:28;;;;;;;9.63;2.75;;;;;;;;;;5026186;28;20020;-64
2024/01/24 06:11:54;;;;;;;8.80;2.70;;;;;;;;;;5045331;28;20024;-63
2024/01/24 06:14:19;;;;;;;13.20;3.33;;;;;;;;;;5044337;28;20919;-64
2024/01/24 06:16:44;;;;;;;12.10;3.17;;;;;;;;;;5045045;28;21182;-64
2024/01/24 06:19:09;;;;;;;10.40;2.67;;;;;;;;;;5021600;28;20059;-64
2024/01/24 06:21:35;;;;;;;12.87;3.17;;;;;;;;;;5034881;28;20284;-65
2024/01/24 06:24:00;;;;;;;8.67;2.17;;;;;;;;;;5045292;28;20270;-64
2024/01/24 06:26:25;;;;;;;12.63;3.23;;;;;;;;;;5042885;28;20278;-64
2024/01/24 06:28:50;;;;;;;16.70;3.20;;;;;;;;;;5043699;28;20338;-64
2024/01/24 06:31:15;;;;;;;13.95;3.08;;;;;;;;;;5042628;28;20384;-64
2024/01/24 06:33:41;;;;;;;11.40;2.83;;;;;;;;;;5044052;28;20795;-64
2024/01/24 06:36:06;;;;;;;16.33;3.30;;;;;;;;;;5044118;28;20093;-64
2024/01/24 06:38:31;;;;;;;12.35;3.17;;;;;;;;;;5019268;28;20027;-64
2024/01/24 06:40:57;;;;;;;10.40;2.55;;;;;;;;;;5042662;28;20020;-64
2024/01/24 06:43:22;;;;;;;17.50;3.25;;;;;;;;;;5042372;28;20850;-65
2024/01/24 06:45:47;;;;;;;17.20;3.60;;;;;;;;;;5043500;28;20144;-63
2024/01/24 06:48:13;;;;;;;10.90;3.20;;;;;;;;;;5044595;28;20048;-64
2024/01/24 06:50:38;;;;;;;18.20;3.20;;;;;;;;;;5044233;28;21254;-65
2024/01/24 06:53:05;;;;;;;9.43;2.65;;;;;;;;;;5045003;28;21268;-65
2024/01/24 06:55:31;;;;;;;13.75;3.30;;;;;;;;;;5042404;28;20507;-65
2024/01/24 06:57:56;;;;;;;21.87;4.03;;;;;;;;;;5043894;28;20031;-65
2024/01/24 07:00:21;;;;;;;20.10;3.60;;;;;;;;;;5042322;28;21244;-65
2024/01/24 07:02:48;;;;;;;14.35;3.05;;;;;;;;;;5042785;28;21122;-65
2024/01/24 07:05:14;;;;;;;13.73;3.35;;;;;;;;;;5042324;28;20139;-65
2024/01/24 07:07:39;;;;;;;17.00;3.83;;;;;;;;;;5042134;28;20042;-65
2024/01/24 07:10:04;;;;;;;11.10;3.27;;;;;;;;;;5042538;28;20024;-65
2024/01/24 07:12:30;;;;;;;11.32;3.22;;;;;;;;;;5039545;28;20297;-65
2024/01/24 07:14:55;;;;;;;14.45;4.15;;;;;;;;;;5041727;28;20882;-64
2024/01/24 07:17:20;;;;;;;12.27;3.13;;;;;;;;;;5034590;28;20129;-65
2024/01/24 07:19:46;;;;;;;14.63;3.63;;;;;;;;;;5041491;28;20131;-65
2024/01/24 07:22:11;;;;;;;12.55;3.50;;;;;;;;;;5047404;28;20266;-65
2024/01/24 07:24:36;;;;;;;17.60;3.67;;;;;;;;;;5046005;28;20044;-66
2024/01/24 07:27:02;;;;;;;11.23;3.70;;;;;;;;;;5045914;28;20389;-65
2024/01/24 07:29:27;;;;;;;16.10;3.67;;;;;;;;;;5040809;28;20855;-65
2024/01/24 07:31:52;;;;;;;20.90;4.60;;;;;;;;;;5039516;28;20959;-66
2024/01/24 07:34:17;;;;;;;19.27;3.80;;;;;;;;;;5046175;28;20032;-65
2024/01/24 07:36:43;;;;;;;17.88;3.60;;;;;;;;;;5047218;28;20313;-66
2024/01/24 07:39:08;;;;;;;14.40;3.33;;;;;;;;;;5045619;28;20039;-65
2024/01/24 07:41:34;;;;;;;18.30;3.17;;;;;;;;;;5048039;28;20060;-66
2024/01/24 07:43:59;;;;;;;11.23;3.42;;;;;;;;;;5046850;28;20338;-65
2024/01/24 07:46:25;;;;;;;20.60;4.60;;;;;;;;;;5047179;28;20935;-65
2024/01/24 07:48:50;;;;;;;16.33;4.65;;;;;;;;;;5043610;28;20031;-64
2024/01/24 07:51:16;;;;;;;15.60;4.00;;;;;;;;;;5043166;28;20020;-65
2024/01/24 07:53:43;;;;;;;19.85;4.50;;;;;;;;;;5045865;28;20294;-66
2024/01/24 07:56:10;;;;;;;16.50;3.97;;;;;;;;;;5046149;28;20942;-65
2024/01/24 07:58:36;;;;;;;19.98;4.93;;;;;;;;;;5047996;28;20028;-65
2024/01/24 08:01:01;;;;;;;14.32;3.65;;;;;;;;;;5049251;28;20040;-65
2024/01/24 08:03:26;;;;;;;13.32;3.95;;;;;;;;;;5049108;28;20034;-65
2024/01/24 08:05:51;;;;;;;16.53;4.97;;;;;;;;;;5047969;28;20912;-65
2024/01/24 08:08:17;;;;;;;17.03;3.83;;;;;;;;;;5050127;28;21254;-65
2024/01/24 08:10:42;;;;;;;15.70;3.83;;;;;;;;;;5045524;28;21218;-65
2024/01/24 08:13:07;;;;;;;18.08;4.93;;;;;;;;;;5047127;28;20020;-65
2024/01/24 08:15:33;;;;;;;14.95;4.00;;;;;;;;;;5048044;28;20028;-65
2024/01/24 08:17:58;;;;;;;13.13;4.72;;;;;;;;;;5045339;28;20031;-65
2024/01/24 08:20:23;;;;;;;17.27;4.85;;;;;;;;;;5046960;28;20039;-64
2024/01/24 08:22:49;;;;;;;15.23;4.75;;;;;;;;;;5045783;28;20471;-64
2024/01/24 08:25:14;;;;;;;20.80;4.47;;;;;;;;;;5047299;28;20090;-65
2024/01/24 08:27:39;;;;;;;19.38;4.57;;;;;;;;;;5046373;28;20579;-64
2024/01/24 08:30:05;;;;;;;23.03;5.07;;;;;;;;;;5044044;28;20036;-65
2024/01/24 08:32:30;;;;;;;16.23;4.40;;;;;;;;;;5046085;28;20305;-65
2024/01/24 08:34:55;;;;;;;17.27;4.60;;;;;;;;;;5043934;28;21002;-64
2024/01/24 08:37:21;;;;;;;17.90;4.95;;;;;;;;;;5034441;28;20134;-64
2024/01/24 08:39:46;;;;;;;20.58;5.35;;;;;;;;;;5047494;28;20123;-64
2024/01/24 08:42:11;;;;;;;18.63;4.95;;;;;;;;;;5039088;28;20830;-64
2024/01/24 08:44:37;;;;;;;13.32;3.95;;;;;;;;;;5017211;28;20043;-64
2024/01/24 08:47:08;;;;;;;16.38;4.45;;;;;;;;;;5048073;28;20032;-65
2024/01/24 08:49:33;;;;;;;15.32;4.13;;;;;;;;;;5047931;28;20897;-65
2024/01/24 08:52:02;;;;;;;21.33;4.40;;;;;;;;;;5047723;28;20044;-65
2024/01/24 08:54:28;;;;;;;21.02;5.55;;;;;;;;;;5048361;28;21207;-66
2024/01/24 08:56:57;;;;;;;15.02;3.83;;;;;;;;;;5043566;28;20020;-65
2024/01/24 08:59:23;;;;;;;19.83;4.68;;;;;;;;;;5044943;28;20890;-65
2024/01/24 09:01:48;;;;;;;25.48;4.47;;;;;;;;;;5038078;28;20040;-66
2024/01/24 09:04:14;;;;;;;21.42;4.53;;;;;;;;;;5045481;28;20094;-65
2024/01/24 09:06:39;;;;;;;17.13;4.93;;;;;;;;;;5044679;28;20016;-65
2024/01/24 09:09:06;;;;;;;17.35;4.93;;;;;;;;;;5045607;28;20032;-65
2024/01/24 09:11:31;;;;;;;23.25;4.50;;;;;;;;;;5044529;28;20131;-65
2024/01/24 09:13:58;;;;;;;24.55;5.72;;;;;;;;;;5044967;28;20027;-65
2024/01/24 09:16:23;;;;;;;18.75;4.80;;;;;;;;;;5045206;28;20030;-65
2024/01/24 09:18:48;;;;;;;19.93;5.13;;;;;;;;;;5044972;28;20836;-65
2024/01/24 09:21:13;;;;;;;18.10;4.20;;;;;;;;;;5045540;28;20375;-65
2024/01/24 09:23:38;;;;;;;23.42;5.18;;;;;;;;;;5042894;28;20031;-65
2024/01/24 09:26:04;;;;;;;18.35;5.65;;;;;;;;;;5046864;28;20024;-65
2024/01/24 09:28:29;;;;;;;19.08;4.60;;;;;;;;;;5046630;28;20024;-65
2024/01/24 09:30:54;;;;;;;13.48;4.40;;;;;;;;;;5045522;28;20135;-64
2024/01/24 09:33:20;;;;;;;19.42;5.45;;;;;;;;;;5045887;28;20819;-65
2024/01/24 09:35:46;;;;;;;21.58;4.68;;;;;;;;;;5045828;28;20840;-65
2024/01/24 09:38:11;;;;;;;16.50;4.47;;;;;;;;;;5044448;28;20028;-66
2024/01/24 09:40:37;;;;;;;17.13;5.20;;;;;;;;;;5043902;28;20054;-66
2024/01/24 09:43:03;;;;;;;23.27;6.18;;;;;;;;;;5045663;28;20893;-65
2024/01/24 09:45:28;;;;;;;17.23;5.22;;;;;;;;;;5045261;28;20131;-64
2024/01/24 09:47:55;;;;;;;18.75;5.13;;;;;;;;;;5043815;28;20069;-65
2024/01/24 09:50:21;;;;;;;17.77;4.50;;;;;;;;;;5044455;28;20085;-66
2024/01/24 09:52:46;;;;;;;14.57;4.38;;;;;;;;;;5045274;28;20030;-65
2024/01/24 09:55:13;;;;;;;17.08;4.75;;;;;;;;;;5042708;28;20851;-65
2024/01/24 09:57:39;;;;;;;15.63;4.60;;;;;;;;;;5037077;28;20020;-66
2024/01/24 10:00:04;;;;;;;21.75;4.63;;;;;;;;;;5034721;28;20866;-65
2024/01/24 10:02:30;;;;;;;20.35;5.22;;;;;;;;;;5043804;28;20920;-65
2024/01/24 10:05:04;;;;;;;16.45;4.60;;;;;;;;;;5094397;27;21041;-65
2024/01/24 10:07:30;;;;;;;22.17;4.63;;;;;;;;;;5076649;28;20946;-65
2024/01/24 10:10:07;;;;;;;17.58;5.10;;;;;;;;;;5077946;28;20025;-65
2024/01/24 10:12:32;;;;;;;22.48;5.25;;;;;;;;;;5073488;28;20873;-66
2024/01/24 10:14:57;;;;;;;15.93;4.53;;;;;;;;;;5073815;27;20126;-66
2024/01/24 10:17:22;;;;;;;23.67;5.10;;;;;;;;;;5071483;28;20964;-68
2024/01/24 10:19:48;;;;;;;16.30;4.53;;;;;;;;;;5072611;28;21131;-64
2024/01/24 10:22:14;;;;;;;14.93;4.00;;;;;;;;;;5065402;28;21126;-65
2024/01/24 10:24:40;;;;;;;19.13;5.03;;;;;;;;;;5076089;27;20028;-65
2024/01/24 10:27:05;;;;;;;15.45;5.13;;;;;;;;;;5071030;28;20027;-65
2024/01/24 10:29:30;;;;;;;18.88;4.70;;;;;;;;;;5077128;27;20809;-66
2024/01/24 10:31:59;;;;;;;23.35;5.72;;;;;;;;;;5063923;28;20895;-66
2024/01/24 10:34:27;;;;;;;21.00;4.95;;;;;;;;;;5073281;28;20084;-66
2024/01/24 10:36:52;;;;;;;16.10;4.70;;;;;;;;;;5066887;28;20020;-65
2024/01/24 10:39:20;;;;;;;16.50;5.07;;;;;;;;;;5078313;27;20020;-65
2024/01/24 10:41:47;;;;;;;17.70;4.75;;;;;;;;;;5070489;28;20274;-66
2024/01/24 10:44:16;;;;;;;15.13;4.68;;;;;;;;;;5075344;28;20026;-65
2024/01/24 10:46:42;;;;;;;21.52;4.72;;;;;;;;;;5074010;28;20031;-65
2024/01/24 10:49:09;;;;;;;17.85;4.72;;;;;;;;;;5070096;28;20078;-65
2024/01/24 10:51:34;;;;;;;16.73;4.30;;;;;;;;;;5067810;27;20593;-65
2024/01/24 10:54:01;;;;;;;17.47;4.37;;;;;;;;;;5074221;28;20027;-65
2024/01/24 10:56:27;;;;;;;18.05;5.28;;;;;;;;;;5067850;27;20616;-65
2024/01/24 10:58:52;;;;;;;28.77;5.97;;;;;;;;;;5069100;28;20885;-65
2024/01/24 11:01:18;;;;;;;24.60;5.90;;;;;;;;;;5068738;28;20878;-65
2024/01/24 11:03:45;;;;;;;18.30;5.22;;;;;;;;;;5071577;28;20129;-65
2024/01/24 11:06:15;;;;;;;18.45;5.20;;;;;;;;;;5080078;27;20027;-66
2024/01/24 11:08:51;;;;;;;18.73;4.80;;;;;;;;;;5067115;28;20278;-66
2024/01/24 11:11:18;;;;;;;15.10;4.32;;;;;;;;;;5066700;27;20101;-65
2024/01/24 11:13:43;;;;;;;19.08;5.32;;;;;;;;;;5071002;28;20019;-65
2024/01/24 11:16:32;;;;;;;19.70;4.53;;;;;;;;;;5055900;28;20027;-65
2024/01/24 11:18:59;;;;;;;19.70;4.20;;;;;;;;;;5061543;28;20036;-66
2024/01/24 11:21:27;;;;;;;17.38;4.68;;;;;;;;;;5053000;28;20194;-65
2024/01/24 11:23:53;;;;;;;18.30;4.93;;;;;;;;;;5061315;28;20034;-65
2024/01/24 11:26:18;;;;;;;17.10;4.70;;;;;;;;;;5064890;28;20804;-66
2024/01/24 11:28:43;;;;;;;21.77;5.27;;;;;;;;;;5054575;28;21013;-65
2024/01/24 11:31:09;;;;;;;28.05;5.03;;;;;;;;;;5055643;28;20135;-65
2024/01/24 11:33:34;;;;;;;18.10;4.90;;;;;;;;;;5055760;28;20016;-65
2024/01/24 11:36:01;;;;;;;21.15;4.68;;;;;;;;;;5053120;28;20077;-65
2024/01/24 11:38:26;;;;;;;16.23;5.47;;;;;;;;;;5063281;28;20024;-65
2024/01/24 11:41:12;;;;;;;25.57;5.17;;;;;;;;;;5053811;28;20938;-65
2024/01/24 11:43:41;;;;;;;13.73;4.25;;;;;;;;;;5038837;28;20398;-65
2024/01/24 11:46:07;;;;;;;18.35;5.40;;;;;;;;;;5062866;28;20140;-65
2024/01/24 11:48:34;;;;;;;19.75;5.32;;;;;;;;;;5052230;28;20904;-64
2024/01/24 11:51:04;;;;;;;17.60;4.65;;;;;;;;;;5062803;28;20024;-66
2024/01/24 11:53:30;;;;;;;14.93;4.97;;;;;;;;;;5064915;28;20028;-64
2024/01/24 11:56:02;;;;;;;21.25;5.10;;;;;;;;;;5062960;28;20039;-64
2024/01/24 11:58:28;;;;;;;19.38;5.25;;;;;;;;;;5052007;28;20073;-63
2024/01/24 12:00:55;;;;;;;14.85;3.63;;;;;;;;;;5059413;28;20897;-64
2024/01/24 12:03:20;;;;;;;22.90;4.72;;;;;;;;;;5048437;28;20024;-66
2024/01/24 12:05:46;;;;;;;17.83;5.20;;;;;;;;;;5063628;28;20126;-64
2024/01/24 12:08:12;;;;;;;16.25;4.95;;;;;;;;;;5063881;28;20019;-65
2024/01/24 12:10:38;;;;;;;16.13;4.38;;;;;;;;;;5056484;28;20146;-65
2024/01/24 12:13:04;;;;;;;18.70;4.40;;;;;;;;;;5061533;28;20028;-64
2024/01/24 12:15:29;;;;;;;16.75;4.53;;;;;;;;;;5058015;28;20027;-65
2024/01/24 12:18:15;;;;;;;14.15;4.18;;;;;;;;;;5049594;28;20116;-65
2024/01/24 12:20:45;;;;;;;17.63;4.88;;;;;;;;;;5050466;28;20079;-64
2024/01/24 12:23:10;;;;;;;15.30;4.40;;;;;;;;;;5055542;28;20137;-65
2024/01/24 12:25:35;;;;;;;19.45;4.05;;;;;;;;;;5054381;28;20876;-65
2024/01/24 12:28:01;;;;;;;17.85;4.35;;;;;;;;;;5056624;28;20063;-65
2024/01/24 12:30:32;;;;;;;14.00;4.25;;;;;;;;;;5057105;28;20435;-63
2024/01/24 12:32:57;;;;;;;14.48;4.60;;;;;;;;;;5062032;28;20139;-64
2024/01/24 12:35:23;;;;;;;20.15;5.05;;;;;;;;;;5061754;28;21016;-65
2024/01/24 12:37:48;;;;;;;12.20;3.25;;;;;;;;;;5063980;28;20827;-64
2024/01/24 12:40:14;;;;;;;14.65;4.20;;;;;;;;;;5061881;28;20026;-64
2024/01/24 12:42:40;;;;;;;16.75;4.35;;;;;;;;;;5052020;28;20883;-64
2024/01/24 12:45:12;;;;;;;16.85;5.25;;;;;;;;;;5059170;28;20016;-66
2024/01/24 12:47:38;;;;;;;15.75;4.20;;;;;;;;;;5047183;28;20132;-66
2024/01/24 12:50:04;;;;;;;13.73;3.58;;;;;;;;;;5057351;28;20835;-65
2024/01/24 12:52:30;;;;;;;19.73;5.00;;;;;;;;;;5049571;28;20016;-65
2024/01/24 12:54:55;;;;;;;16.25;4.70;;;;;;;;;;5063598;28;20023;-66
2024/01/24 12:57:21;;;;;;;14.23;3.80;;;;;;;;;;5058794;28;20038;-66
2024/01/24 12:59:47;;;;;;;13.60;4.30;;;;;;;;;;5051493;28;20292;-66
2024/01/24 13:02:13;;;;;;;11.93;4.63;;;;;;;;;;5060555;28;20028;-65
2024/01/24 13:04:41;;;;;;;12.85;3.63;;;;;;;;;;5057635;28;20273;-65
2024/01/24 13:07:06;;;;;;;13.98;3.40;;;;;;;;;;5050155;28;20020;-64
2024/01/24 13:09:31;;;;;;;16.67;4.07;;;;;;;;;;5050890;28;20269;-63
2024/01/24 13:11:57;;;;;;;20.83;5.25;;;;;;;;;;5059426;28;20273;-64
2024/01/24 13:14:22;;;;;;;15.93;3.42;;;;;;;;;;5054257;28;20930;-64
2024/01/24 13:16:47;;;;;;;19.30;4.20;;;;;;;;;;5054632;28;20047;-64
2024/01/24 13:19:13;;;;;;;14.43;3.83;;;;;;;;;;5059291;28;20266;-65
2024/01/24 13:21:38;;;;;;;17.25;3.65;;;;;;;;;;5044704;28;20781;-65
2024/01/24 13:24:04;;;;;;;18.93;4.07;;;;;;;;;;5054492;28;20024;-64
2024/01/24 13:26:29;;;;;;;20.42;4.47;;;;;;;;;;5050167;28;20474;-65
2024/01/24 13:28:55;;;;;;;16.60;4.28;;;;;;;;;;5060436;28;20617;-65
2024/01/24 13:31:20;;;;;;;18.75;3.88;;;;;;;;;;5057976;28;20075;-64
2024/01/24 13:33:47;;;;;;;22.73;4.23;;;;;;;;;;5056530;28;20059;-65
2024/01/24 13:36:16;;;;;;;14.38;4.05;;;;;;;;;;5058931;28;20331;-64
2024/01/24 13:38:41;;;;;;;18.77;3.75;;;;;;;;;;5058887;28;20346;-64
2024/01/24 13:41:06;;;;;;;21.60;4.50;;;;;;;;;;5053831;28;20568;-64
2024/01/24 13:43:32;;;;;;;13.02;4.90;;;;;;;;;;5058953;28;21407;-65
2024/01/24 13:45:57;;;;;;;16.08;4.07;;;;;;;;;;5062677;28;20182;-65
2024/01/24 13:48:23;;;;;;;18.70;3.78;;;;;;;;;;5050392;28;20225;-65
2024/01/24 13:50:48;;;;;;;15.68;4.43;;;;;;;;;;5057525;28;20027;-64
2024/01/24 13:53:13;;;;;;;17.00;4.67;;;;;;;;;;5059827;28;20031;-64
2024/01/24 13:55:39;;;;;;;15.40;3.72;;;;;;;;;;5054313;28;20276;-65
2024/01/24 13:58:05;;;;;;;18.48;4.55;;;;;;;;;;5052640;28;20035;-64
2024/01/24 14:00:30;;;;;;;14.80;3.97;;;;;;;;;;5058659;28;20019;-64
2024/01/24 14:02:55;;;;;;;17.23;4.15;;;;;;;;;;5052771;28;20027;-64
2024/01/24 14:05:20;;;;;;;16.07;3.90;;;;;;;;;;5051166;28;20032;-64
2024/01/24 14:07:46;;;;;;;21.63;5.30;;;;;;;;;;5057794;28;20435;-65
2024/01/24 14:10:11;;;;;;;17.15;3.75;;;;;;;;;;5056666;28;20031;-65
2024/01/24 14:12:36;;;;;;;16.42;4.07;;;;;;;;;;5060216;28;20881;-65
2024/01/24 14:15:04;;;;;;;15.95;3.75;;;;;;;;;;5058980;28;20238;-64
2024/01/24 14:17:30;;;;;;;16.75;3.75;;;;;;;;;;5054866;28;20035;-65
2024/01/24 14:19:56;;;;;;;14.77;3.70;;;;;;;;;;5048837;28;20105;-65
2024/01/24 14:22:21;;;;;;;20.00;5.20;;;;;;;;;;5061653;28;20388;-65
2024/01/24 14:24:46;;;;;;;13.70;2.92;;;;;;;;;;5043358;28;20024;-65
2024/01/24 14:27:11;;;;;;;16.00;3.80;;;;;;;;;;5055642;28;20051;-64